8A0 weather

Albertville Regional Airport/Thomas J Brumlik Field
Albertville, Alabama, United States

Public forecast

Using degrees Fahrenheit for public forecast. Weather courtesy of forecast.io.

Current aviation weather report (METAR) for Albertville Regional Airport/Thomas J Brumlik Field

Retrieved UTC (0 seconds ago):

Closest aviation forecast (TAF) to Albertville Regional Airport/Thomas J Brumlik Field

Closest forecast is Huntsville International Carl T Jones Field, 35.5 nm (65.8 km) NW. Retrieved 2020/02/23 12:22 UTC (22 minutes ago):

TAF KHSV 231120Z 2312/2412 VRB04KT P6SM BKN250 FM231700 19007KT P6SM BKN120 FM240000 15005KT P6SM VCSH OVC070 PROB30 2402/2408 4SM -SHRA OVC025 FM240800 14012KT 6SM -SHRA OVC025